Guadalajara, Mexico

3:56 AM CDT on September 04, 2015 (GMT -0500)
Guadalajara Col. Oblatos | | Change Station
CLOSE
Current Station
Personal Weather Station
Location: Col. Oblatos, JALISCO
Elevation: 5134 ft
Nearby Weather Stations

Elev 5134 ft 20.69 °N, 103.29 °W | Updated 22 minutes ago

Rain
Rain
61.9 °F
Feels Like 61.9 °F
N
4.0
Wind Variable Wind from ENE
Gusts 11.0 mph

Today
High -- | Low -- °F
--% Chance of Precip.
Yesterday
High -- | Low -- °F
Precip. -- in
7:38 AM 8:06 PM
Waning Gibbous, 61% visible
Pressure 29.80 in
Visibility 8.0 miles
Clouds Mostly Cloudy 2500 ft
Overcast 8000 ft
Dew Point 59 °F
Humidity 89%
Rainfall Not available.
Snow Depth Not available.
UV 0 out of 12
Pollen Not available.
Air Quality Not available.
Flu Activity Not available.
METAR MMGL 040850Z 28004KT 8SM BKN025CB OVC080 16/15 A3012 RMK SLP089 52001 959 60576 8/96/ LTGCG/S/SW RAE40 OCNL DROPS
Pressure 29.80 in
Visibility 8.0 miles
Clouds Mostly Cloudy 2500 ft
Overcast 8000 ft
Dew Point 59 °F
Humidity 89%
Rainfall Not available.
Snow Depth Not available.
UV 0 out of 12
Pollen Not available.
Air Quality Not available.
Flu Activity Not available.
METAR MMGL 040850Z 28004KT 8SM BKN025CB OVC080 16/15 A3012 RMK SLP089 52001 959 60576 8/96/ LTGCG/S/SW RAE40 OCNL DROPS

10-Day Weather Forecast

×

Almanac

Astronomy

Sep. 04, 2015 Rise Set
Actual Time
Civil Twilight
Nautical Twilight
Astronomical Twilight
Moon
Length of Visible Light
Length of Day
Tomorrow will be .
, % of the Moon is Illuminated

Today's Extremes

Country Highs Country Lows

Community

WunderPhotos

Upload Photos

1,852,141 photos uploaded!

WunderBlogs® & News

Nearby

Air Quality

  Air Quality AQ Index Pollutant
Not available.

Snow Depth

Station Depth Elevation

Earthquake Activity

City Distance Mag. Time & Date
Minimum magnitude displayed is 2.5.

Coastal Water Temperatures

Place Temperature

Stations

Nearby Weather Stations

Station Location Temp. Windchill Dew Point Humidity Wind Precip. Elev Updated Type